Time;durP1;ratioP1;P1;durP2;ratioP2;P2;SDS_P1;SDS_P2;PMS_P1;PMS_P2;Temp;Humidity;BMP_temperature;BMP_pressure;BME280_temperature;BME280_humidity;BME280_pressure;Samples;Min_cycle;Max_cycle;Signal;HPM_P1;HPM_P2
2022/05/03 00:02:06;;;;;;;9.50;7.55;;;9.20;99.90;;;8.42;100.00;97500.34;5004425;28;20129;-73
2022/05/03 00:05:08;;;;;;;14.65;7.97;;;8.90;99.90;;;8.43;100.00;97494.25;4985806;28;20047;-72
2022/05/03 00:07:47;;;;;;;10.27;8.27;;;9.20;99.90;;;8.43;100.00;97499.44;4971951;28;20053;-73
2022/05/03 00:10:26;;;;;;;12.10;8.43;;;9.10;99.90;;;8.36;100.00;97493.59;5005797;28;20588;-72
2022/05/03 00:13:07;;;;;;;10.68;8.80;;;9.00;99.90;;;8.34;100.00;97495.38;5017053;28;20057;-71
2022/05/03 00:15:37;;;;;;;13.98;8.73;;;9.00;99.90;;;8.32;100.00;97500.59;5003688;28;20511;-73
2022/05/03 00:18:07;;;;;;;11.13;9.07;;;9.10;99.90;;;8.31;100.00;97498.94;4999049;28;20053;-71
2022/05/03 00:20:35;;;;;;;10.73;8.73;;;8.90;99.90;;;8.33;100.00;97489.38;4999145;28;20128;-73
2022/05/03 00:23:02;;;;;;;11.48;8.77;;;9.10;99.90;;;8.37;100.00;97490.97;4976162;28;20105;-72
2022/05/03 00:25:30;;;;;;;12.43;9.82;;;9.00;99.90;;;8.39;100.00;97485.72;4984612;28;20060;-73
2022/05/03 00:27:58;;;;;;;15.13;9.18;;;9.10;99.90;;;8.57;100.00;97490.25;4981519;28;20140;-73
2022/05/03 00:30:27;;;;;;;12.05;9.32;;;9.20;99.90;;;8.58;100.00;97485.94;5018582;28;20129;-73
2022/05/03 00:32:55;;;;;;;16.48;10.95;;;9.20;99.90;;;8.58;100.00;97483.38;4984559;28;20135;-72
2022/05/03 00:35:23;;;;;;;10.80;9.10;;;9.30;99.90;;;8.73;100.00;97476.78;4971367;28;20145;-73
2022/05/03 00:37:51;;;;;;;12.13;9.75;;;9.40;99.90;;;8.72;100.00;97481.13;5004609;28;20079;-73
2022/05/03 00:40:20;;;;;;;12.20;9.70;;;9.40;99.90;;;8.75;100.00;97477.56;5008351;28;20041;-73
2022/05/03 00:43:12;;;;;;;14.68;9.05;;;9.50;99.90;;;8.87;100.00;97479.72;5005232;28;20093;-73
2022/05/03 00:45:55;;;;;;;16.38;9.70;;;9.50;99.90;;;8.88;100.00;97471.03;5003682;28;20125;-73
2022/05/03 00:48:41;;;;;;;;;;;9.60;99.90;;;8.94;100.00;97478.59;5004467;28;20163;-73
2022/05/03 00:51:15;;;;;;;11.60;9.23;;;9.70;99.90;;;9.05;100.00;97482.50;5003822;28;19963;-73
2022/05/03 00:54:26;;;;;;;15.50;10.27;;;9.70;99.90;;;9.13;100.00;97485.66;5014834;28;20074;-74
2022/05/03 00:57:14;;;;;;;11.95;9.60;;;9.70;99.90;;;9.06;100.00;97481.63;5016044;28;20184;-73
2022/05/03 01:00:07;;;;;;;11.15;8.48;;;9.70;99.90;;;9.15;100.00;97482.09;5001253;28;20129;-73
2022/05/03 01:02:56;;;;;;;11.05;8.43;;;9.80;99.90;;;9.12;100.00;97476.19;5002445;28;20132;-73
2022/05/03 01:05:31;;;;;;;9.32;8.20;;;9.80;99.90;;;9.23;100.00;97470.59;4999750;28;20046;-73
2022/05/03 01:08:07;;;;;;;11.20;8.40;;;9.80;99.90;;;9.30;100.00;97472.88;5000545;28;20576;-73
2022/05/03 01:10:58;;;;;;;10.02;7.82;;;9.90;99.90;;;9.38;100.00;97476.00;5005618;28;20057;-73
2022/05/03 01:13:36;;;;;;;10.73;7.45;;;9.90;99.90;;;9.40;100.00;97473.38;4974386;28;20050;-74
2022/05/03 01:16:23;;;;;;;10.25;7.90;;;9.90;99.90;;;9.50;100.00;97473.84;4987241;28;20046;-73
2022/05/03 01:19:18;;;;;;;10.35;7.60;;;10.00;99.90;;;9.50;100.00;97469.50;5004284;28;20046;-71
2022/05/03 01:22:25;;;;;;;11.85;8.68;;;10.00;99.90;;;9.44;100.00;97469.72;5002102;28;20157;-71
2022/05/03 01:25:16;;;;;;;11.60;7.85;;;10.00;99.90;;;9.44;100.00;97474.91;5000567;28;20129;-73
2022/05/03 01:28:47;;;;;;;14.40;9.15;;;10.00;99.90;;;9.38;100.00;97462.22;5001546;28;20088;-74
2022/05/03 01:31:15;;;;;;;12.75;9.57;;;10.00;99.90;;;9.29;100.00;97473.78;4989333;28;20137;-73
2022/05/03 01:33:45;;;;;;;13.45;9.48;;;9.90;99.90;;;9.30;100.00;97469.44;5001566;28;20069;-73
2022/05/03 01:36:34;;;;;;;12.93;9.48;;;9.90;99.90;;;9.29;100.00;97470.38;5017356;28;20085;-73
2022/05/03 01:39:15;;;;;;;14.15;9.45;;;9.90;99.90;;;9.13;100.00;97467.53;4999967;28;20046;-73
2022/05/03 01:42:10;;;;;;;9.60;7.95;;;9.80;99.90;;;9.07;100.00;97467.75;4998978;28;20670;-74
2022/05/03 01:44:53;;;;;;;12.73;8.82;;;9.70;99.90;;;9.00;100.00;97464.53;5002519;28;20145;-72
2022/05/03 01:47:26;;;;;;;11.50;8.25;;;9.60;99.90;;;8.94;100.00;97465.63;5001241;28;20555;-73
2022/05/03 01:50:18;;;;;;;10.15;8.40;;;9.50;99.90;;;8.95;100.00;97463.88;5017675;28;20060;-73
2022/05/03 01:53:04;;;;;;;15.00;9.98;;;9.50;99.90;;;8.87;100.00;97471.94;5014253;28;20128;-73
2022/05/03 01:55:58;;;;;;;12.60;9.35;;;9.50;99.90;;;8.91;100.00;97468.31;5002303;28;20077;-73
2022/05/03 01:58:58;;;;;;;14.43;10.13;;;9.50;99.90;;;8.92;100.00;97461.44;5000685;28;20142;-73
2022/05/03 02:01:40;;;;;;;12.63;10.15;;;9.40;99.90;;;8.84;100.00;97459.09;5002889;28;20125;-73
2022/05/03 02:05:05;;;;;;;15.67;10.50;;;9.40;99.90;;;8.88;100.00;97468.44;5002079;28;20103;-73
2022/05/03 02:07:52;;;;;;;;;;;9.30;99.90;;;8.85;100.00;97470.28;5002848;28;20105;-73
2022/05/03 02:10:43;;;;;;;11.68;9.13;;;9.30;99.90;;;8.91;100.00;97470.06;4999958;28;20008;-73
2022/05/03 02:13:28;;;;;;;9.48;8.32;;;9.30;99.90;;;8.94;100.00;97457.88;5000359;28;20053;-73
2022/05/03 02:16:08;;;;;;;14.25;10.68;;;9.30;99.90;;;8.87;100.00;97455.56;4982436;28;20124;-73
2022/05/03 02:19:04;;;;;;;10.82;9.55;;;9.30;99.90;;;8.59;100.00;97448.81;4984479;28;20132;-74
2022/05/03 02:22:14;;;;;;;10.63;7.68;;;9.20;99.90;;;8.88;100.00;97449.50;5002807;28;20561;-73
2022/05/03 02:25:20;;;;;;;12.75;9.15;;;9.10;99.90;;;8.81;100.00;97443.69;4985874;28;20056;-73
2022/05/03 02:28:18;;;;;;;7.95;7.07;;;9.00;99.90;;;8.62;100.00;97443.56;4998175;28;20077;-73
2022/05/03 02:30:49;;;;;;;9.73;8.40;;;9.00;99.90;;;8.41;100.00;97450.31;5018316;28;20050;-72
2022/05/03 02:33:49;;;;;;;8.70;7.10;;;8.90;99.90;;;8.51;100.00;97450.88;5001819;28;20069;-72
2022/05/03 02:36:22;;;;;;;7.97;7.00;;;8.90;99.90;;;8.48;100.00;97456.97;5004406;28;20085;-70
2022/05/03 02:39:03;;;;;;;9.20;7.88;;;8.90;99.90;;;8.32;100.00;97455.78;5017703;28;20224;-72
2022/05/03 02:41:50;;;;;;;13.65;9.38;;;8.80;99.90;;;8.18;100.00;97448.53;5000125;28;20060;-71
2022/05/03 02:44:20;;;;;;;11.20;9.15;;;8.80;99.90;;;8.23;100.00;97456.97;4998428;28;20539;-72
2022/05/03 02:46:58;;;;;;;12.77;10.52;;;8.80;99.90;;;8.20;100.00;97457.06;5012426;28;20592;-71
2022/05/03 02:50:28;;;;;;;13.23;11.50;;;8.90;99.90;;;8.27;100.00;97457.72;5017787;28;20106;-72
2022/05/03 02:53:14;;;;;;;14.82;11.02;;;8.90;99.90;;;8.13;100.00;97447.84;4903477;29;20100;-72
2022/05/03 02:55:57;;;;;;;16.92;11.13;;;8.80;99.90;;;8.15;100.00;97448.66;4987260;28;20045;-72
2022/05/03 02:58:49;;;;;;;11.90;10.65;;;8.80;99.90;;;8.16;100.00;97451.19;5016024;28;20141;-71
2022/05/03 03:01:59;;;;;;;11.80;9.00;;;8.90;99.90;;;8.21;100.00;97457.91;5018254;28;20066;-72
2022/05/03 03:04:46;;;;;;;9.30;8.38;;;8.90;99.90;;;8.35;100.00;97453.13;4998523;28;20128;-71
2022/05/03 03:07:17;;;;;;;9.98;8.50;;;9.00;99.90;;;8.46;100.00;97445.00;5002521;28;20073;-74
2022/05/03 03:09:50;;;;;;;11.32;8.98;;;9.00;99.90;;;8.39;100.00;97446.91;4984409;28;20057;-71
2022/05/03 03:12:44;;;;;;;12.15;10.45;;;9.00;99.90;;;8.51;100.00;97445.69;4982425;28;20509;-71
2022/05/03 03:15:15;;;;;;;14.13;11.83;;;9.10;99.90;;;8.54;100.00;97453.31;5000407;28;20125;-70
2022/05/03 03:17:50;;;;;;;12.30;10.82;;;9.10;99.90;;;8.62;100.00;97453.91;5001520;28;20304;-73
2022/05/03 03:20:28;;;;;;;12.20;10.80;;;9.30;99.90;;;8.65;100.00;97452.94;4987441;28;20132;-72
2022/05/03 03:22:55;;;;;;;11.70;10.27;;;9.20;99.90;;;8.72;100.00;97444.88;5000214;28;20053;-71
2022/05/03 03:25:23;;;;;;;14.35;10.93;;;9.30;99.90;;;8.76;100.00;97449.06;4986458;28;20066;-72
2022/05/03 03:27:53;;;;;;;12.80;10.65;;;9.40;99.90;;;8.81;100.00;97451.47;4999923;28;20042;-74
2022/05/03 03:30:22;;;;;;;12.95;10.55;;;9.50;99.90;;;8.77;100.00;97450.72;5013830;28;20084;-71
2022/05/03 03:32:56;;;;;;;12.88;11.10;;;9.40;99.90;;;8.78;100.00;97444.66;5003472;28;20483;-74
2022/05/03 03:35:24;;;;;;;15.82;11.40;;;9.40;99.90;;;8.79;100.00;97442.91;4998488;28;20629;-74
2022/05/03 03:37:52;;;;;;;12.38;10.93;;;9.40;99.90;;;8.86;100.00;97451.28;4989804;28;20372;-74
2022/05/03 03:40:20;;;;;;;11.55;10.38;;;9.40;99.90;;;8.81;100.00;97450.63;5001301;28;20089;-72
2022/05/03 03:42:49;;;;;;;11.85;10.65;;;9.50;99.90;;;8.81;100.00;97448.88;5002804;28;20478;-72
2022/05/03 03:45:17;;;;;;;16.67;11.95;;;9.50;99.90;;;8.80;100.00;97449.75;5003234;28;20141;-72
2022/05/03 03:47:46;;;;;;;14.13;11.02;;;9.40;99.90;;;8.88;100.00;97452.91;5001771;28;20046;-72
2022/05/03 03:50:14;;;;;;;15.63;11.50;;;9.50;99.90;;;8.90;100.00;97450.28;5002854;28;20081;-71
2022/05/03 03:52:43;;;;;;;15.75;10.90;;;9.50;99.90;;;8.92;100.00;97446.72;5006111;28;20073;-71
2022/05/03 03:55:12;;;;;;;14.25;11.90;;;9.60;99.90;;;8.95;100.00;97450.94;5001351;28;20053;-72
2022/05/03 03:57:40;;;;;;;15.18;11.45;;;9.50;99.90;;;8.94;100.00;97451.81;4989677;28;20136;-72
2022/05/03 04:00:15;;;;;;;14.02;11.18;;;9.60;99.90;;;8.96;100.00;97450.91;5019319;28;20459;-72
2022/05/03 04:02:46;;;;;;;14.88;11.27;;;9.50;99.90;;;8.94;100.00;97449.25;4986835;28;20053;-73
2022/05/03 04:05:21;;;;;;;12.60;11.30;;;9.60;99.90;;;8.90;100.00;97451.13;5004560;28;20053;-72
2022/05/03 04:07:51;;;;;;;13.93;11.27;;;9.60;99.90;;;8.94;100.00;97450.09;4988556;28;20057;-72
2022/05/03 04:10:20;;;;;;;13.65;10.93;;;9.60;99.90;;;8.98;100.00;97450.81;5017924;28;20137;-73
2022/05/03 04:12:47;;;;;;;13.82;11.50;;;9.80;99.90;;;9.03;100.00;97453.22;4989053;28;20045;-72
2022/05/03 04:15:14;;;;;;;14.20;11.13;;;9.70;99.90;;;9.10;100.00;97452.94;5018033;28;20077;-71
2022/05/03 04:17:45;;;;;;;12.88;11.20;;;9.70;99.90;;;9.23;100.00;97450.72;5006823;28;20057;-74
2022/05/03 04:20:18;;;;;;;12.13;9.45;;;9.70;99.90;;;9.32;100.00;97454.69;4998334;28;20054;-73
2022/05/03 04:22:45;;;;;;;10.57;9.38;;;9.80;99.90;;;9.38;100.00;97451.88;4985320;28;20384;-72
2022/05/03 04:25:13;;;;;;;11.18;8.65;;;9.90;99.90;;;9.52;100.00;97441.78;4986891;28;20065;-72
2022/05/03 04:27:40;;;;;;;11.98;8.38;;;10.00;99.90;;;9.75;100.00;97440.84;5002510;28;20136;-73
2022/05/03 04:30:08;;;;;;;10.38;8.15;;;10.10;99.90;;;9.79;100.00;97441.56;4985332;28;20141;-72
2022/05/03 04:32:35;;;;;;;12.38;9.38;;;10.10;99.90;;;9.76;100.00;97446.84;4974632;28;20078;-72
2022/05/03 04:35:03;;;;;;;12.23;9.80;;;10.10;99.90;;;9.68;100.00;97449.78;5004340;28;20152;-71
2022/05/03 04:37:30;;;;;;;12.95;9.32;;;10.20;99.90;;;9.69;100.00;97448.84;4989612;28;20104;-72
2022/05/03 04:39:57;;;;;;;17.05;10.80;;;10.30;99.90;;;9.62;100.00;97444.84;5003335;28;20081;-71
2022/05/03 04:42:24;;;;;;;12.40;10.00;;;10.20;99.90;;;9.51;100.00;97450.47;5004359;28;20805;-72
2022/05/03 04:44:51;;;;;;;13.50;10.55;;;10.20;99.90;;;9.53;100.00;97445.22;5006946;28;20046;-72
2022/05/03 04:47:19;;;;;;;14.15;10.38;;;10.30;99.90;;;9.58;100.00;97454.50;5001985;28;20115;-72
2022/05/03 04:49:48;;;;;;;12.90;10.77;;;10.20;99.90;;;9.66;100.00;97458.53;4984322;28;20054;-73
2022/05/03 04:52:16;;;;;;;13.57;10.02;;;10.20;99.90;;;9.70;100.00;97460.09;4999227;28;20156;-72
2022/05/03 04:54:42;;;;;;;12.93;9.60;;;10.30;99.90;;;9.77;100.00;97457.16;5007190;28;20046;-71
2022/05/03 04:57:10;;;;;;;12.75;10.60;;;10.10;99.90;;;9.74;100.00;97457.31;5003071;28;20054;-72
2022/05/03 04:59:40;;;;;;;14.30;10.02;;;10.40;99.90;;;9.87;100.00;97459.38;4987663;28;20042;-73
2022/05/03 05:02:07;;;;;;;12.98;10.30;;;10.40;99.90;;;9.88;100.00;97467.09;4968237;28;20124;-73
2022/05/03 05:04:35;;;;;;;12.60;9.98;;;10.50;99.90;;;10.01;100.00;97462.22;4971915;28;20050;-74
2022/05/03 05:07:02;;;;;;;13.98;10.88;;;10.50;99.90;;;10.16;100.00;97464.19;4987174;28;20050;-73
2022/05/03 05:09:29;;;;;;;11.73;9.82;;;10.60;99.90;;;10.19;100.00;97466.63;4982881;28;20053;-74
2022/05/03 05:11:56;;;;;;;15.35;10.48;;;10.70;99.90;;;10.31;100.00;97462.72;4999362;28;20524;-74
2022/05/03 05:14:23;;;;;;;11.82;10.02;;;10.80;99.90;;;10.38;100.00;97458.13;4996719;28;20046;-74
2022/05/03 05:16:51;;;;;;;15.70;10.18;;;11.00;99.90;;;10.50;100.00;97467.13;5000727;28;20054;-74
2022/05/03 05:19:18;;;;;;;14.77;9.52;;;11.10;99.90;;;10.51;100.00;97461.00;5016243;28;20156;-73
2022/05/03 05:21:45;;;;;;;11.63;9.55;;;11.10;99.90;;;10.72;100.00;97456.59;5003523;28;20485;-71
2022/05/03 05:24:13;;;;;;;12.85;9.75;;;11.30;99.90;;;10.67;100.00;97462.88;4999806;28;20114;-74
2022/05/03 05:26:41;;;;;;;15.65;11.20;;;11.30;99.90;;;10.64;100.00;97454.34;4999691;28;20508;-75
2022/05/03 05:29:10;;;;;;;14.82;9.90;;;11.40;99.90;;;10.83;100.00;97452.63;5000698;28;20049;-74
2022/05/03 05:31:37;;;;;;;13.82;10.30;;;11.50;99.90;;;10.91;100.00;97448.84;5003931;28;20142;-74
2022/05/03 05:34:05;;;;;;;11.95;10.00;;;11.50;99.90;;;10.93;100.00;97453.03;5001897;28;20112;-73
2022/05/03 05:36:32;;;;;;;11.23;9.70;;;11.60;99.90;;;11.10;100.00;97447.06;5000787;28;20132;-72
2022/05/03 05:38:59;;;;;;;12.20;8.85;;;11.70;99.90;;;11.25;100.00;97448.09;5000815;28;20117;-73
2022/05/03 05:41:25;;;;;;;12.30;9.63;;;11.80;99.90;;;11.23;100.00;97439.53;5001138;28;20054;-74
2022/05/03 05:43:52;;;;;;;13.95;10.15;;;11.90;99.90;;;11.37;100.00;97441.47;5011920;28;20132;-73
2022/05/03 05:46:19;;;;;;;15.10;10.10;;;12.00;99.90;;;11.47;100.00;97438.38;5000281;28;20062;-74
2022/05/03 05:48:47;;;;;;;15.20;9.68;;;12.10;99.90;;;11.45;100.00;97444.56;4997718;28;20061;-74
2022/05/03 05:51:14;;;;;;;11.68;9.00;;;12.20;99.90;;;11.56;100.00;97447.44;4984860;28;20089;-73
2022/05/03 05:53:43;;;;;;;16.33;10.18;;;12.20;99.90;;;11.25;100.00;97445.50;5014972;28;20133;-72
2022/05/03 05:56:11;;;;;;;14.30;9.57;;;12.40;99.90;;;11.45;100.00;97447.16;4985163;28;20148;-72
2022/05/03 05:58:45;;;;;;;10.73;9.27;;;12.40;99.90;;;11.58;100.00;97452.59;4969071;28;20046;-72
2022/05/03 06:01:12;;;;;;;14.80;9.52;;;12.40;99.90;;;11.66;100.00;97446.09;4998775;28;20089;-72
2022/05/03 06:03:41;;;;;;;13.10;9.40;;;12.40;99.90;;;11.78;100.00;97449.00;4998290;28;20057;-71
2022/05/03 06:06:08;;;;;;;13.32;9.40;;;12.50;99.90;;;11.77;100.00;97450.78;4985747;28;20127;-72
2022/05/03 06:08:35;;;;;;;11.90;9.82;;;12.60;99.90;;;11.71;100.00;97453.69;4999889;28;20129;-72
2022/05/03 06:11:02;;;;;;;13.43;10.13;;;12.50;99.90;;;11.68;100.00;97453.84;5005171;28;20049;-72
2022/05/03 06:13:31;;;;;;;13.80;10.82;;;12.40;99.90;;;11.60;100.00;97449.00;5006830;28;20042;-74
2022/05/03 06:16:11;;;;;;;11.27;9.15;;;12.50;99.90;;;11.62;100.00;97454.97;5000906;28;20144;-71
2022/05/03 06:18:38;;;;;;;17.08;10.02;;;12.60;99.90;;;11.78;100.00;97457.66;4997940;28;20038;-74
2022/05/03 06:21:07;;;;;;;11.48;9.68;;;12.60;99.90;;;11.85;100.00;97458.19;4999935;28;20042;-74
2022/05/03 06:23:35;;;;;;;17.77;10.23;;;12.60;99.90;;;11.87;100.00;97458.97;4999124;28;20065;-74
2022/05/03 06:26:05;;;;;;;12.77;9.93;;;12.70;99.90;;;11.88;100.00;97458.94;4985634;28;20622;-71
2022/05/03 06:28:40;;;;;;;13.85;9.73;;;12.90;99.90;;;12.00;100.00;97462.66;4997290;28;20060;-74
2022/05/03 06:31:08;;;;;;;14.43;10.43;;;13.40;99.90;;;12.19;100.00;97464.34;4998384;28;20145;-74
2022/05/03 06:33:35;;;;;;;10.95;8.68;;;13.00;99.90;;;12.33;100.00;97465.31;4998763;28;20045;-73
2022/05/03 06:36:09;;;;;;;11.90;8.95;;;13.30;99.90;;;12.36;100.00;97461.69;5000715;28;20078;-72
2022/05/03 06:38:36;;;;;;;11.93;9.15;;;13.20;99.90;;;12.24;100.00;97465.78;4998884;28;20042;-72
2022/05/03 06:41:03;;;;;;;15.07;9.45;;;13.20;99.90;;;12.38;100.00;97467.66;4981974;28;20145;-73
2022/05/03 06:43:30;;;;;;;11.95;9.52;;;13.30;99.90;;;12.40;100.00;97463.22;4999059;28;20543;-73
2022/05/03 06:45:57;;;;;;;15.57;9.50;;;13.40;99.90;;;12.44;100.00;97472.56;5003370;28;20508;-72
2022/05/03 06:48:24;;;;;;;11.25;9.15;;;12.80;99.90;;;12.67;100.00;97467.94;4998015;28;20050;-73
2022/05/03 06:50:52;;;;;;;13.88;9.57;;;13.60;99.90;;;12.88;100.00;97466.78;4984901;28;20082;-73
2022/05/03 06:53:19;;;;;;;11.63;8.98;;;13.70;99.90;;;13.02;100.00;97463.41;4995132;28;20144;-71
2022/05/03 06:55:46;;;;;;;13.20;9.20;;;13.80;99.90;;;12.82;100.00;97461.91;4998882;28;20478;-73
2022/05/03 06:58:13;;;;;;;15.45;9.23;;;13.80;99.90;;;13.06;100.00;97458.91;4999091;28;20081;-73
2022/05/03 07:00:40;;;;;;;15.25;9.02;;;13.80;99.90;;;13.02;100.00;97462.59;4999575;28;20054;-72
2022/05/03 07:03:07;;;;;;;12.45;8.82;;;13.80;99.90;;;13.27;100.00;97454.25;5003653;28;20088;-73
2022/05/03 07:05:34;;;;;;;14.55;8.13;;;14.00;99.90;;;13.19;100.00;97454.69;4998480;28;20050;-73
2022/05/03 07:08:01;;;;;;;12.32;8.57;;;14.10;99.90;;;13.13;100.00;97463.69;4999286;28;20133;-73
2022/05/03 07:10:28;;;;;;;14.00;8.80;;;14.10;99.90;;;13.14;100.00;97457.56;4998570;28;20081;-73
2022/05/03 07:12:55;;;;;;;13.25;7.78;;;14.10;99.90;;;13.17;100.00;97453.94;4996383;28;20466;-72
2022/05/03 07:15:24;;;;;;;12.18;7.85;;;14.10;99.90;;;13.35;100.00;97457.31;4998125;28;20050;-73
2022/05/03 07:23:24;;;;;;;12.23;8.35;;;14.20;99.90;;;13.46;100.00;97470.59;4993800;28;20172;-73
2022/05/03 07:25:51;;;;;;;11.93;8.75;;;14.40;99.90;;;13.78;100.00;97468.78;4993515;28;20100;-72
2022/05/03 07:28:18;;;;;;;11.07;8.48;;;14.70;99.90;;;13.78;100.00;97471.38;5002451;28;20762;-73
2022/05/03 07:30:45;;;;;;;13.05;9.27;;;14.80;99.90;;;13.47;100.00;97459.25;5003821;28;20045;-73
2022/05/03 07:33:12;;;;;;;10.80;8.40;;;14.50;99.90;;;13.40;100.00;97470.94;5016862;28;20057;-74
2022/05/03 07:35:39;;;;;;;12.30;8.35;;;14.60;99.90;;;13.47;100.00;97469.66;5004603;28;20392;-71
2022/05/03 07:38:06;;;;;;;11.07;8.57;;;14.70;99.90;;;13.32;100.00;97468.78;5002726;28;20512;-73
2022/05/03 07:40:33;;;;;;;14.65;9.50;;;14.50;99.90;;;13.37;100.00;97471.13;5002980;28;20131;-74
2022/05/03 07:43:03;;;;;;;12.23;9.10;;;14.60;99.90;;;13.57;100.00;97485.63;5003865;28;20160;-74
2022/05/03 07:45:30;;;;;;;10.85;8.05;;;14.50;99.90;;;13.83;100.00;97481.56;4999343;28;20050;-72
2022/05/03 07:48:04;;;;;;;12.48;8.95;;;14.80;99.90;;;14.05;100.00;97477.69;4995633;28;20053;-74
2022/05/03 07:50:31;;;;;;;14.15;8.32;;;15.10;99.90;;;13.85;100.00;97478.88;5002370;28;20058;-74
2022/05/03 07:52:58;;;;;;;12.65;9.25;;;15.20;99.90;;;13.92;100.00;97480.19;4985669;28;20045;-74
2022/05/03 07:55:26;;;;;;;12.05;7.72;;;15.00;99.90;;;14.03;100.00;97477.81;4971328;28;20129;-74
2022/05/03 07:57:53;;;;;;;10.85;7.93;;;15.10;99.90;;;14.27;100.00;97482.50;5005774;28;20129;-73
2022/05/03 08:00:20;;;;;;;10.27;8.15;;;15.10;99.90;;;14.34;100.00;97473.38;5002374;28;20133;-74
2022/05/03 08:02:47;;;;;;;10.57;7.30;;;15.30;99.90;;;14.67;100.00;97478.41;5002770;28;20048;-74
2022/05/03 08:05:16;;;;;;;9.55;7.75;;;15.50;99.90;;;14.65;100.00;97480.25;5000560;28;20061;-74
2022/05/03 08:07:44;;;;;;;13.23;7.97;;;15.70;99.90;;;14.81;100.00;97475.78;5001216;28;20455;-73
2022/05/03 08:10:11;;;;;;;10.57;7.78;;;15.90;99.90;;;14.64;100.00;97470.72;5001785;28;20045;-73
2022/05/03 08:12:38;;;;;;;13.93;7.63;;;16.00;99.90;;;14.34;100.00;97476.81;5001200;28;20090;-74
2022/05/03 08:15:06;;;;;;;10.52;7.47;;;15.80;99.90;;;14.81;100.00;97478.38;4999759;28;20188;-74
2022/05/03 08:17:33;;;;;;;10.90;7.35;;;15.80;99.90;;;14.71;100.00;97479.91;5000739;28;20804;-72
2022/05/03 08:20:00;;;;;;;12.75;7.72;;;15.70;99.90;;;14.72;100.00;97485.94;5000653;28;20133;-74
2022/05/03 08:22:27;;;;;;;9.07;6.45;;;15.60;99.90;;;14.84;100.00;97490.41;4981651;28;20081;-73
2022/05/03 08:24:54;;;;;;;10.90;6.53;;;15.60;99.90;;;14.79;100.00;97493.31;5005689;28;20049;-73
2022/05/03 08:27:21;;;;;;;11.20;6.85;;;15.70;99.90;;;14.91;100.00;97485.66;5000636;28;20080;-74
2022/05/03 08:29:48;;;;;;;12.00;7.20;;;15.70;99.90;;;14.56;100.00;97497.31;4999645;28;20144;-74
2022/05/03 08:32:16;;;;;;;9.75;7.15;;;15.50;99.90;;;14.85;100.00;97497.34;5002959;28;20503;-73
2022/05/03 08:34:43;;;;;;;11.52;6.72;;;15.70;99.90;;;14.94;100.00;97502.00;5003066;28;20057;-74
2022/05/03 08:42:42;;;;;;;11.27;7.05;;;15.90;99.90;;;14.81;100.00;97504.50;5002882;28;20050;-73
2022/05/03 08:45:09;;;;;;;10.65;7.75;;;15.90;99.90;;;14.96;100.00;97500.13;4997956;28;20049;-73
2022/05/03 08:47:38;;;;;;;7.90;6.05;;;15.90;99.90;;;15.30;100.00;97500.63;5001150;28;20567;-74
2022/05/03 08:50:10;;;;;;;11.07;7.45;;;16.10;99.90;;;14.99;100.00;97501.72;5001241;28;20086;-73
2022/05/03 08:52:50;;;;;;;8.82;6.68;;;16.10;99.90;;;15.13;100.00;97506.94;5001550;28;20133;-74
2022/05/03 08:55:17;;;;;;;9.13;7.45;;;16.10;99.90;;;15.02;100.00;97501.53;4970446;28;20077;-74
2022/05/03 08:57:45;;;;;;;10.65;6.95;;;16.00;99.90;;;15.02;100.00;97501.53;4988876;28;20077;-73
2022/05/03 09:00:14;;;;;;;13.73;7.20;;;15.90;99.90;;;14.92;100.00;97506.47;4998849;28;20521;-72
2022/05/03 09:02:53;;;;;;;12.80;6.95;;;16.10;99.90;;;15.12;100.00;97502.66;4997353;28;20755;-74
2022/05/03 09:05:22;;;;;;;9.90;6.30;;;14.60;99.90;;;15.29;100.00;97506.81;4982406;28;20072;-74
2022/05/03 09:07:52;;;;;;;10.70;6.47;;;16.10;99.90;;;15.05;100.00;97502.19;5014506;28;20062;-73
2022/05/03 09:10:29;;;;;;;12.88;6.90;;;16.00;99.90;;;15.24;100.00;97504.47;4984248;28;20136;-73
2022/05/03 09:13:24;;;;;;;11.82;7.40;;;16.10;99.90;;;15.31;100.00;97502.31;4998568;28;20049;-74
2022/05/03 09:15:56;;;;;;;8.07;6.78;;;16.20;99.90;;;15.72;100.00;97495.44;5017099;28;20153;-73
2022/05/03 09:18:31;;;;;;;8.23;6.03;;;16.50;99.90;;;16.27;100.00;97497.03;5000906;28;20104;-74
2022/05/03 09:23:51;;;;;;;11.70;6.00;;;17.20;99.90;;;16.28;100.00;97491.69;4998327;28;20053;-74
2022/05/03 09:26:21;;;;;;;9.60;5.90;;;17.30;99.90;;;16.64;100.00;97502.38;5000920;28;20076;-74
2022/05/03 09:28:50;;;;;;;10.15;6.38;;;17.60;99.90;;;16.72;100.00;97497.47;5001297;28;20115;-74
2022/05/03 09:31:29;;;;;;;11.35;7.07;;;17.60;99.90;;;16.91;100.00;97502.31;5002220;28;20582;-73
2022/05/03 09:33:59;;;;;;;8.07;6.45;;;17.70;99.90;;;17.17;100.00;97499.63;5000820;28;20058;-74
2022/05/03 09:36:27;;;;;;;8.70;6.05;;;18.10;99.90;;;17.33;100.00;97494.97;4999592;28;20058;-74
2022/05/03 09:39:21;;;;;;;9.50;6.15;;;18.10;99.90;;;17.84;100.00;97497.44;4977812;28;20058;-74
2022/05/03 09:42:11;;;;;;;8.48;5.63;;;18.40;99.90;;;18.57;100.00;97490.25;5001333;28;20069;-74
2022/05/03 09:44:51;;;;;;;6.65;5.10;;;18.90;99.90;;;19.06;100.00;97488.28;5003200;28;20054;-73
2022/05/03 09:47:29;;;;;;;8.40;5.95;;;19.30;99.90;;;19.06;100.00;97488.28;5016557;28;20465;-73
2022/05/03 09:49:57;;;;;;;7.20;5.45;;;19.70;99.90;;;19.98;100.00;97483.53;4983630;28;20041;-74
2022/05/03 09:52:35;;;;;;;8.48;5.45;;;;;;;19.85;100.00;97471.38;4983866;28;20054;-71
2022/05/03 09:55:06;;;;;;;7.15;4.50;;;20.30;99.90;;;20.48;100.00;97484.59;5000570;28;20042;-75
2022/05/03 09:57:37;;;;;;;9.37;5.03;;;20.70;99.90;;;20.78;100.00;97485.63;4999219;28;20050;-71
2022/05/03 10:00:07;;;;;;;11.00;4.87;;;21.20;99.90;;;20.99;100.00;97472.38;4984349;28;20863;-70
2022/05/03 10:02:40;;;;;;;9.10;4.78;;;21.30;98.50;;;21.49;100.00;97472.41;4998375;28;20077;-72
2022/05/03 10:05:15;;;;;;;8.13;4.97;;;21.80;97.50;;;21.16;100.00;97475.34;4982391;28;20053;-72
2022/05/03 10:07:43;;;;;;;13.75;4.63;;;22.00;96.60;;;21.44;100.00;97476.41;4981512;28;20169;-72
2022/05/03 10:10:12;;;;;;;7.20;4.40;;;22.00;96.20;;;21.50;100.00;97470.59;4980618;28;20116;-72
2022/05/03 10:12:46;;;;;;;10.77;4.40;;;21.90;96.30;;;21.58;100.00;97473.41;4998143;28;20072;-72
2022/05/03 10:20:35;;;;;;;5.95;3.80;;;22.50;95.30;;;22.42;100.00;97470.22;4983710;28;20133;-73
2022/05/03 10:21:03;;;;;;;8.43;5.03;;;22.20;93.80;;;21.19;100.00;97461.88;5011652;28;20472;-72
2022/05/03 10:23:33;;;;;;;5.50;3.40;;;22.00;94.10;;;22.26;100.00;97468.16;5000194;28;20061;-72
2022/05/03 10:26:05;;;;;;;7.70;4.85;;;22.30;95.50;;;21.14;100.00;97467.56;4973864;28;20183;-70
2022/05/03 10:29:03;;;;;;;7.75;4.57;;;22.40;93.50;;;21.78;100.00;97461.06;4984446;28;20096;-72
2022/05/03 10:31:31;;;;;;;6.18;4.07;;;22.30;93.80;;;22.00;100.00;97467.03;4999799;28;20125;-72
2022/05/03 10:34:02;;;;;;;6.30;4.30;;;22.30;93.90;;;21.80;100.00;97463.53;4968269;28;20081;-71
2022/05/03 10:36:33;;;;;;;5.50;3.92;;;22.60;93.20;;;22.33;100.00;97457.84;4981034;28;20058;-70
2022/05/03 10:39:22;;;;;;;6.93;3.85;;;22.80;93.10;;;23.08;100.00;97452.59;5000418;28;20046;-71
2022/05/03 10:42:02;;;;;;;6.40;3.97;;;23.10;93.40;;;22.80;100.00;97447.25;4980722;28;20133;-71
2022/05/03 10:44:50;;;;;;;10.07;4.60;;;23.30;93.20;;;22.40;100.00;97447.50;4996873;28;20149;-72
2022/05/03 10:47:53;;;;;;;7.18;4.18;;;23.40;92.00;;;22.73;100.00;97446.19;4979431;28;20611;-72
2022/05/03 10:50:30;;;;;;;8.15;4.22;;;23.30;92.20;;;22.67;100.00;97442.31;4998939;28;20516;-72
2022/05/03 10:52:59;;;;;;;6.65;3.85;;;23.30;92.00;;;23.38;100.00;97433.75;5006404;28;20050;-72
2022/05/03 10:55:33;;;;;;;9.60;3.63;;;23.50;92.10;;;23.17;100.00;97436.69;5001698;28;20819;-72
2022/05/03 10:58:31;;;;;;;7.13;3.35;;;23.40;91.20;;;22.71;100.00;97440.19;5006638;28;20609;-72
2022/05/03 11:01:05;;;;;;;12.68;2.90;;;23.30;91.50;;;23.76;100.00;97428.34;5004199;28;20088;-72